sensor_id;sensor_type;location;lat;lon;timestamp;pressure;altitude;pressure_sealevel;temperature;humidity
41515;BME280;27247;48.020;16.720;2024-01-07T00:02:11;98800.81;;;2.90;100.00
41515;BME280;27247;48.020;16.720;2024-01-07T00:06:21;98805.06;;;2.83;100.00
41515;BME280;27247;48.020;16.720;2024-01-07T00:10:31;98810.47;;;2.81;100.00
41515;BME280;27247;48.020;16.720;2024-01-07T00:14:42;98820.34;;;2.79;100.00
41515;BME280;27247;48.020;16.720;2024-01-07T00:18:52;98808.44;;;2.75;100.00
41515;BME280;27247;48.020;16.720;2024-01-07T00:23:02;98810.78;;;2.61;100.00
41515;BME280;27247;48.020;16.720;2024-01-07T00:27:13;98814.94;;;2.63;100.00
41515;BME280;27247;48.020;16.720;2024-01-07T00:31:23;98816.97;;;2.51;100.00
41515;BME280;27247;48.020;16.720;2024-01-07T00:35:33;98818.78;;;2.51;100.00
41515;BME280;27247;48.020;16.720;2024-01-07T00:39:44;98814.09;;;2.45;100.00
41515;BME280;27247;48.020;16.720;2024-01-07T00:43:55;98824.63;;;2.45;100.00
41515;BME280;27247;48.020;16.720;2024-01-07T00:48:06;98819.97;;;2.39;100.00
41515;BME280;27247;48.020;16.720;2024-01-07T00:52:17;98815.66;;;2.38;100.00
41515;BME280;27247;48.020;16.720;2024-01-07T00:56:27;98824.84;;;2.34;100.00
41515;BME280;27247;48.020;16.720;2024-01-07T01:00:38;98852.03;;;2.34;100.00
41515;BME280;27247;48.020;16.720;2024-01-07T01:04:48;98846.22;;;2.31;100.00
41515;BME280;27247;48.020;16.720;2024-01-07T01:09:01;98846.28;;;2.21;100.00
41515;BME280;27247;48.020;16.720;2024-01-07T01:13:11;98849.06;;;2.19;100.00
41515;BME280;27247;48.020;16.720;2024-01-07T01:17:22;98853.50;;;2.19;100.00
41515;BME280;27247;48.020;16.720;2024-01-07T01:21:32;98852.16;;;2.15;100.00
41515;BME280;27247;48.020;16.720;2024-01-07T01:25:42;98849.38;;;2.07;100.00
41515;BME280;27247;48.020;16.720;2024-01-07T01:29:53;98844.00;;;2.08;100.00
41515;BME280;27247;48.020;16.720;2024-01-07T01:34:03;98849.38;;;2.07;100.00
41515;BME280;27247;48.020;16.720;2024-01-07T01:38:13;98843.47;;;1.95;100.00
41515;BME280;27247;48.020;16.720;2024-01-07T01:42:24;98834.63;;;1.86;100.00
41515;BME280;27247;48.020;16.720;2024-01-07T01:46:34;98838.41;;;1.84;100.00
41515;BME280;27247;48.020;16.720;2024-01-07T01:50:46;98822.63;;;1.74;100.00
41515;BME280;27247;48.020;16.720;2024-01-07T01:54:58;98835.41;;;1.69;100.00
41515;BME280;27247;48.020;16.720;2024-01-07T01:59:11;98829.16;;;1.70;100.00
41515;BME280;27247;48.020;16.720;2024-01-07T02:03:21;98831.66;;;1.72;100.00
41515;BME280;27247;48.020;16.720;2024-01-07T02:07:32;98829.75;;;1.64;100.00
41515;BME280;27247;48.020;16.720;2024-01-07T02:11:42;98831.97;;;1.59;100.00
41515;BME280;27247;48.020;16.720;2024-01-07T02:15:52;98837.81;;;1.53;100.00
41515;BME280;27247;48.020;16.720;2024-01-07T02:20:03;98837.81;;;1.53;100.00
41515;BME280;27247;48.020;16.720;2024-01-07T02:24:17;98840.03;;;1.48;100.00
41515;BME280;27247;48.020;16.720;2024-01-07T02:28:29;98838.81;;;1.42;100.00
41515;BME280;27247;48.020;16.720;2024-01-07T02:32:40;98853.78;;;1.42;100.00
41515;BME280;27247;48.020;16.720;2024-01-07T02:36:50;98846.56;;;1.44;100.00
41515;BME280;27247;48.020;16.720;2024-01-07T02:41:00;98848.78;;;1.39;100.00
41515;BME280;27247;48.020;16.720;2024-01-07T02:45:11;98851.72;;;1.36;100.00
41515;BME280;27247;48.020;16.720;2024-01-07T02:49:21;98853.50;;;1.35;100.00
41515;BME280;27247;48.020;16.720;2024-01-07T02:53:31;98854.34;;;1.36;100.00
41515;BME280;27247;48.020;16.720;2024-01-07T02:57:42;98848.09;;;1.37;100.00
41515;BME280;27247;48.020;16.720;2024-01-07T03:01:52;98851.84;;;1.34;100.00
41515;BME280;27247;48.020;16.720;2024-01-07T03:06:03;98856.84;;;1.27;100.00
41515;BME280;27247;48.020;16.720;2024-01-07T03:10:13;98850.59;;;1.28;100.00
41515;BME280;27247;48.020;16.720;2024-01-07T03:14:23;98849.91;;;1.26;100.00
41515;BME280;27247;48.020;16.720;2024-01-07T03:18:34;98854.63;;;1.23;100.00
41515;BME280;27247;48.020;16.720;2024-01-07T03:22:44;98858.09;;;1.23;100.00
41515;BME280;27247;48.020;16.720;2024-01-07T03:26:54;98856.16;;;1.25;100.00
41515;BME280;27247;48.020;16.720;2024-01-07T03:31:09;98846.75;;;1.23;100.00
41515;BME280;27247;48.020;16.720;2024-01-07T03:35:20;98851.59;;;1.08;100.00
41515;BME280;27247;48.020;16.720;2024-01-07T03:39:32;98860.75;;;1.14;100.00
41515;BME280;27247;48.020;16.720;2024-01-07T03:43:44;98861.44;;;1.16;100.00
41515;BME280;27247;48.020;16.720;2024-01-07T03:47:54;98866.00;;;1.14;100.00
41515;BME280;27247;48.020;16.720;2024-01-07T03:52:06;98863.09;;;1.07;100.00
41515;BME280;27247;48.020;16.720;2024-01-07T03:56:16;98880.00;;;1.05;100.00
41515;BME280;27247;48.020;16.720;2024-01-07T04:00:26;98878.06;;;1.07;100.00
41515;BME280;27247;48.020;16.720;2024-01-07T04:04:36;98872.47;;;1.00;100.00
41515;BME280;27247;48.020;16.720;2024-01-07T04:08:47;98884.13;;;0.98;100.00
41515;BME280;27247;48.020;16.720;2024-01-07T04:12:57;98890.34;;;0.96;100.00
41515;BME280;27247;48.020;16.720;2024-01-07T04:17:08;98889.25;;;0.99;100.00
41515;BME280;27247;48.020;16.720;2024-01-07T04:21:18;98890.19;;;0.98;100.00
41515;BME280;27247;48.020;16.720;2024-01-07T04:25:28;98883.16;;;0.99;100.00
41515;BME280;27247;48.020;16.720;2024-01-07T04:29:38;98891.19;;;0.97;100.00
41515;BME280;27247;48.020;16.720;2024-01-07T04:33:49;98896.16;;;0.90;100.00
41515;BME280;27247;48.020;16.720;2024-01-07T04:37:59;98892.69;;;0.90;100.00
41515;BME280;27247;48.020;16.720;2024-01-07T04:42:09;98902.78;;;0.85;100.00
41515;BME280;27247;48.020;16.720;2024-01-07T04:46:20;98891.59;;;0.83;100.00
41515;BME280;27247;48.020;16.720;2024-01-07T04:50:30;98896.16;;;0.81;100.00
41515;BME280;27247;48.020;16.720;2024-01-07T04:54:40;98900.03;;;0.77;100.00
41515;BME280;27247;48.020;16.720;2024-01-07T04:58:50;98902.50;;;0.69;100.00
41515;BME280;27247;48.020;16.720;2024-01-07T05:03:01;98925.31;;;0.68;100.00
41515;BME280;27247;48.020;16.720;2024-01-07T05:07:11;98926.03;;;0.70;100.00
41515;BME280;27247;48.020;16.720;2024-01-07T05:11:21;98929.47;;;0.71;100.00
41515;BME280;27247;48.020;16.720;2024-01-07T05:15:32;98932.66;;;0.64;100.00
41515;BME280;27247;48.020;16.720;2024-01-07T05:19:42;98933.34;;;0.67;100.00
41515;BME280;27247;48.020;16.720;2024-01-07T05:23:52;98936.25;;;0.63;100.00
41515;BME280;27247;48.020;16.720;2024-01-07T05:28:03;98941.22;;;0.57;100.00
41515;BME280;27247;48.020;16.720;2024-01-07T05:32:13;98944.50;;;0.49;100.00
41515;BME280;27247;48.020;16.720;2024-01-07T05:36:23;98949.78;;;0.49;100.00
41515;BME280;27247;48.020;16.720;2024-01-07T05:40:34;98950.47;;;0.51;100.00
41515;BME280;27247;48.020;16.720;2024-01-07T05:44:44;98953.94;;;0.52;100.00
41515;BME280;27247;48.020;16.720;2024-01-07T05:48:54;98949.59;;;0.41;100.00
41515;BME280;27247;48.020;16.720;2024-01-07T05:53:05;98952.81;;;0.45;100.00
41515;BME280;27247;48.020;16.720;2024-01-07T05:57:16;98958.06;;;0.45;100.00
41515;BME280;27247;48.020;16.720;2024-01-07T06:01:26;98958.72;;;0.37;100.00
41515;BME280;27247;48.020;16.720;2024-01-07T06:05:38;98964.69;;;0.39;100.00
41515;BME280;27247;48.020;16.720;2024-01-07T06:09:49;98973.66;;;0.37;100.00
41515;BME280;27247;48.020;16.720;2024-01-07T06:13:59;98977.63;;;0.31;100.00
41515;BME280;27247;48.020;16.720;2024-01-07T06:18:09;98983.72;;;0.31;100.00
41515;BME280;27247;48.020;16.720;2024-01-07T06:22:20;98992.00;;;0.27;100.00
41515;BME280;27247;48.020;16.720;2024-01-07T06:26:31;99001.81;;;0.25;100.00
41515;BME280;27247;48.020;16.720;2024-01-07T06:30:41;99001.41;;;0.29;100.00
41515;BME280;27247;48.020;16.720;2024-01-07T06:34:51;99009.75;;;0.35;100.00
41515;BME280;27247;48.020;16.720;2024-01-07T06:39:02;99006.81;;;0.28;100.00
41515;BME280;27247;48.020;16.720;2024-01-07T06:43:15;99014.13;;;0.24;100.00
41515;BME280;27247;48.020;16.720;2024-01-07T06:47:25;99024.75;;;0.23;100.00
41515;BME280;27247;48.020;16.720;2024-01-07T06:51:37;99033.72;;;0.20;100.00
41515;BME280;27247;48.020;16.720;2024-01-07T06:55:47;99045.59;;;0.15;100.00
41515;BME280;27247;48.020;16.720;2024-01-07T06:59:58;99043.59;;;0.07;100.00
41515;BME280;27247;48.020;16.720;2024-01-07T07:04:08;99043.88;;;0.04;100.00
41515;BME280;27247;48.020;16.720;2024-01-07T07:08:18;99048.41;;;0.02;100.00
41515;BME280;27247;48.020;16.720;2024-01-07T07:12:29;99053.66;;;0.02;100.00
41515;BME280;27247;48.020;16.720;2024-01-07T07:16:39;99051.25;;;-0.01;100.00
41515;BME280;27247;48.020;16.720;2024-01-07T07:20:49;99066.69;;;-0.08;100.00
41515;BME280;27247;48.020;16.720;2024-01-07T07:25:00;99071.94;;;-0.08;100.00
41515;BME280;27247;48.020;16.720;2024-01-07T07:29:10;99068.88;;;-0.13;100.00
41515;BME280;27247;48.020;16.720;2024-01-07T07:33:21;99075.41;;;-0.07;100.00
41515;BME280;27247;48.020;16.720;2024-01-07T07:37:31;99074.19;;;-0.03;100.00
41515;BME280;27247;48.020;16.720;2024-01-07T07:41:41;99081.94;;;-0.02;100.00
41515;BME280;27247;48.020;16.720;2024-01-07T07:45:52;99094.88;;;-0.10;100.00
41515;BME280;27247;48.020;16.720;2024-01-07T07:50:02;99085.97;;;-0.18;100.00
41515;BME280;27247;48.020;16.720;2024-01-07T07:54:13;99101.75;;;-0.29;100.00
41515;BME280;27247;48.020;16.720;2024-01-07T07:58:23;99097.56;;;-0.21;100.00
41515;BME280;27247;48.020;16.720;2024-01-07T08:02:33;99108.31;;;-0.24;100.00
41515;BME280;27247;48.020;16.720;2024-01-07T08:06:44;99110.13;;;-0.36;100.00
41515;BME280;27247;48.020;16.720;2024-01-07T08:10:55;99121.72;;;-0.38;100.00
41515;BME280;27247;48.020;16.720;2024-01-07T08:15:06;99124.22;;;-0.37;100.00
41515;BME280;27247;48.020;16.720;2024-01-07T08:19:16;99124.09;;;-0.35;100.00
41515;BME280;27247;48.020;16.720;2024-01-07T08:23:26;99129.97;;;-0.43;100.00
41515;BME280;27247;48.020;16.720;2024-01-07T08:27:37;99138.44;;;-0.50;100.00
41515;BME280;27247;48.020;16.720;2024-01-07T08:31:47;99143.69;;;-0.50;100.00
41515;BME280;27247;48.020;16.720;2024-01-07T08:35:58;99140.13;;;-0.49;100.00
41515;BME280;27247;48.020;16.720;2024-01-07T08:40:08;99153.47;;;-0.52;100.00
41515;BME280;27247;48.020;16.720;2024-01-07T08:44:19;99156.34;;;-0.55;100.00
41515;BME280;27247;48.020;16.720;2024-01-07T08:48:29;99162.44;;;-0.55;100.00
41515;BME280;27247;48.020;16.720;2024-01-07T08:52:40;99160.63;;;-0.54;100.00
41515;BME280;27247;48.020;16.720;2024-01-07T08:56:50;99162.78;;;-0.59;100.00
41515;BME280;27247;48.020;16.720;2024-01-07T09:01:00;99175.78;;;-0.47;100.00
41515;BME280;27247;48.020;16.720;2024-01-07T09:05:11;99182.94;;;-0.49;100.00
41515;BME280;27247;48.020;16.720;2024-01-07T09:09:24;99187.84;;;-0.55;100.00
41515;BME280;27247;48.020;16.720;2024-01-07T09:13:35;99185.91;;;-0.53;100.00
41515;BME280;27247;48.020;16.720;2024-01-07T09:17:46;99200.34;;;-0.59;100.00
41515;BME280;27247;48.020;16.720;2024-01-07T09:21:56;99192.00;;;-0.53;100.00
41515;BME280;27247;48.020;16.720;2024-01-07T09:26:07;99192.38;;;-0.69;100.00
41515;BME280;27247;48.020;16.720;2024-01-07T09:30:17;99194.16;;;-0.69;100.00
41515;BME280;27247;48.020;16.720;2024-01-07T09:34:28;99194.88;;;-0.78;100.00
41515;BME280;27247;48.020;16.720;2024-01-07T09:38:38;99190.97;;;-0.84;100.00
41515;BME280;27247;48.020;16.720;2024-01-07T09:42:49;99187.72;;;-0.87;100.00
41515;BME280;27247;48.020;16.720;2024-01-07T09:47:01;99190.84;;;-0.82;100.00
41515;BME280;27247;48.020;16.720;2024-01-07T09:51:12;99201.91;;;-0.79;100.00
41515;BME280;27247;48.020;16.720;2024-01-07T09:55:27;99190.84;;;-0.82;100.00
41515;BME280;27247;48.020;16.720;2024-01-07T09:59:38;99193.81;;;-0.87;100.00
41515;BME280;27247;48.020;16.720;2024-01-07T10:03:49;99203.72;;;-0.90;100.00
41515;BME280;27247;48.020;16.720;2024-01-07T10:08:00;99207.03;;;-1.00;100.00
41515;BME280;27247;48.020;16.720;2024-01-07T10:12:10;99202.50;;;-0.98;100.00
41515;BME280;27247;48.020;16.720;2024-01-07T10:16:22;99188.94;;;-0.91;100.00
41515;BME280;27247;48.020;16.720;2024-01-07T10:20:34;99203.34;;;-0.86;100.00
41515;BME280;27247;48.020;16.720;2024-01-07T10:24:44;99206.34;;;-0.90;100.00
41515;BME280;27247;48.020;16.720;2024-01-07T10:28:54;99208.59;;;-0.97;100.00
41515;BME280;27247;48.020;16.720;2024-01-07T10:33:06;99204.53;;;-0.90;100.00
41515;BME280;27247;48.020;16.720;2024-01-07T10:37:17;99210.75;;;-0.91;100.00
41515;BME280;27247;48.020;16.720;2024-01-07T10:41:30;99194.88;;;-0.89;100.00
41515;BME280;27247;48.020;16.720;2024-01-07T10:45:42;99190.84;;;-0.93;100.00
41515;BME280;27247;48.020;16.720;2024-01-07T10:49:53;99196.88;;;-1.04;100.00
41515;BME280;27247;48.020;16.720;2024-01-07T10:54:05;99206.66;;;-1.06;100.00
41515;BME280;27247;48.020;16.720;2024-01-07T10:58:19;99204.53;;;-1.01;100.00
41515;BME280;27247;48.020;16.720;2024-01-07T11:02:30;99205.22;;;-1.10;100.00
41515;BME280;27247;48.020;16.720;2024-01-07T11:07:12;99206.94;;;-0.98;100.00
41515;BME280;27247;48.020;16.720;2024-01-07T11:11:35;99205.59;;;-1.04;100.00
41515;BME280;27247;48.020;16.720;2024-01-07T11:19:59;99202.16;;;-0.93;100.00
41515;BME280;27247;48.020;16.720;2024-01-07T11:24:10;99211.81;;;-0.93;100.00
41515;BME280;27247;48.020;16.720;2024-01-07T11:29:13;99209.44;;;-0.97;100.00
41515;BME280;27247;48.020;16.720;2024-01-07T11:33:16;99200.38;;;-1.04;100.00
41515;BME280;27247;48.020;16.720;2024-01-07T11:37:27;99209.50;;;-1.09;98.93
41515;BME280;27247;48.020;16.720;2024-01-07T11:41:37;99211.06;;;-1.07;99.29
41515;BME280;27247;48.020;16.720;2024-01-07T11:45:50;99201.09;;;-1.02;100.00
41515;BME280;27247;48.020;16.720;2024-01-07T11:50:00;99201.91;;;-1.01;100.00
41515;BME280;27247;48.020;16.720;2024-01-07T11:54:11;99201.91;;;-1.01;100.00
41515;BME280;27247;48.020;16.720;2024-01-07T11:58:22;99210.50;;;-0.99;100.00
41515;BME280;27247;48.020;16.720;2024-01-07T12:02:32;99208.47;;;-0.95;100.00
41515;BME280;27247;48.020;16.720;2024-01-07T12:06:43;99203.72;;;-0.90;100.00
41515;BME280;27247;48.020;16.720;2024-01-07T12:10:54;99200.00;;;-0.88;100.00
41515;BME280;27247;48.020;16.720;2024-01-07T12:15:05;99196.31;;;-0.85;100.00
41515;BME280;27247;48.020;16.720;2024-01-07T12:19:16;99213.72;;;-0.95;100.00
41515;BME280;27247;48.020;16.720;2024-01-07T12:23:26;99212.72;;;-1.06;100.00
41515;BME280;27247;48.020;16.720;2024-01-07T12:27:37;99215.22;;;-1.04;100.00
41515;BME280;27247;48.020;16.720;2024-01-07T12:31:51;99213.56;;;-1.05;100.00
41515;BME280;27247;48.020;16.720;2024-01-07T12:36:01;99210.34;;;-1.09;100.00
41515;BME280;27247;48.020;16.720;2024-01-07T12:40:12;99214.03;;;-1.11;100.00
41515;BME280;27247;48.020;16.720;2024-01-07T12:44:27;99205.09;;;-1.09;100.00
41515;BME280;27247;48.020;16.720;2024-01-07T12:48:37;99221.66;;;-1.08;100.00
41515;BME280;27247;48.020;16.720;2024-01-07T12:52:47;99228.09;;;-1.12;97.78
41515;BME280;27247;48.020;16.720;2024-01-07T12:56:58;99231.19;;;-1.07;98.62
41515;BME280;27247;48.020;16.720;2024-01-07T13:01:08;99233.59;;;-1.04;98.58
41515;BME280;27247;48.020;16.720;2024-01-07T13:05:19;99237.84;;;-1.14;98.14
41515;BME280;27247;48.020;16.720;2024-01-07T13:09:29;99245.50;;;-1.11;98.86
41515;BME280;27247;48.020;16.720;2024-01-07T13:13:40;99239.06;;;-1.07;99.35
41515;BME280;27247;48.020;16.720;2024-01-07T13:17:50;99248.47;;;-1.05;100.00
41515;BME280;27247;48.020;16.720;2024-01-07T13:22:01;99249.19;;;-1.14;98.93
41515;BME280;27247;48.020;16.720;2024-01-07T13:26:11;99239.53;;;-1.13;97.97
41515;BME280;27247;48.020;16.720;2024-01-07T13:30:22;99267.88;;;-1.18;98.41
41515;BME280;27247;48.020;16.720;2024-01-07T13:34:32;99263.00;;;-1.12;100.00
41515;BME280;27247;48.020;16.720;2024-01-07T13:38:43;99271.34;;;-1.07;100.00
41515;BME280;27247;48.020;16.720;2024-01-07T13:42:53;99263.47;;;-1.18;100.00
41515;BME280;27247;48.020;16.720;2024-01-07T13:47:04;99274.53;;;-1.25;99.74
41515;BME280;27247;48.020;16.720;2024-01-07T13:51:15;99272.50;;;-1.22;100.00
41515;BME280;27247;48.020;16.720;2024-01-07T13:55:25;99274.56;;;-1.14;100.00
41515;BME280;27247;48.020;16.720;2024-01-07T13:59:36;99267.88;;;-1.18;100.00
41515;BME280;27247;48.020;16.720;2024-01-07T14:03:46;99280.41;;;-1.11;100.00
41515;BME280;27247;48.020;16.720;2024-01-07T14:07:56;99271.16;;;-1.04;100.00
41515;BME280;27247;48.020;16.720;2024-01-07T14:12:07;99276.09;;;-1.12;100.00
41515;BME280;27247;48.020;16.720;2024-01-07T14:16:17;99273.03;;;-1.06;100.00
41515;BME280;27247;48.020;16.720;2024-01-07T14:20:27;99281.53;;;-1.02;100.00
41515;BME280;27247;48.020;16.720;2024-01-07T14:24:38;99284.88;;;-1.00;100.00
41515;BME280;27247;48.020;16.720;2024-01-07T14:28:49;99291.78;;;-0.99;100.00
41515;BME280;27247;48.020;16.720;2024-01-07T14:33:00;99289.88;;;-0.97;100.00
41515;BME280;27247;48.020;16.720;2024-01-07T14:37:11;99297.44;;;-1.05;100.00
41515;BME280;27247;48.020;16.720;2024-01-07T14:41:21;99301.75;;;-1.04;100.00
41515;BME280;27247;48.020;16.720;2024-01-07T14:45:31;99305.22;;;-1.04;100.00
41515;BME280;27247;48.020;16.720;2024-01-07T14:49:42;99318.78;;;-1.10;100.00
41515;BME280;27247;48.020;16.720;2024-01-07T14:53:52;99309.22;;;-1.11;100.00
41515;BME280;27247;48.020;16.720;2024-01-07T14:58:03;99340.81;;;-1.12;100.00
41515;BME280;27247;48.020;16.720;2024-01-07T15:02:13;99332.28;;;-1.27;100.00
41515;BME280;27247;48.020;16.720;2024-01-07T15:06:23;99347.03;;;-1.37;100.00
41515;BME280;27247;48.020;16.720;2024-01-07T15:10:34;99340.50;;;-1.32;100.00
41515;BME280;27247;48.020;16.720;2024-01-07T15:14:45;99342.66;;;-1.25;100.00
41515;BME280;27247;48.020;16.720;2024-01-07T15:18:55;99344.91;;;-1.32;100.00
41515;BME280;27247;48.020;16.720;2024-01-07T15:23:05;99373.22;;;-1.37;100.00
41515;BME280;27247;48.020;16.720;2024-01-07T15:27:15;99367.38;;;-1.41;100.00
41515;BME280;27247;48.020;16.720;2024-01-07T15:31:26;99360.13;;;-1.37;100.00
41515;BME280;27247;48.020;16.720;2024-01-07T15:35:36;99381.88;;;-1.48;98.22
41515;BME280;27247;48.020;16.720;2024-01-07T15:39:47;99384.25;;;-1.45;95.91
41515;BME280;27247;48.020;16.720;2024-01-07T15:43:58;99375.19;;;-1.52;92.63
41515;BME280;27247;48.020;16.720;2024-01-07T15:48:08;99385.75;;;-1.53;92.48
41515;BME280;27247;48.020;16.720;2024-01-07T15:52:19;99390.28;;;-1.55;93.06
41515;BME280;27247;48.020;16.720;2024-01-07T15:56:29;99383.25;;;-1.55;93.17
41515;BME280;27247;48.020;16.720;2024-01-07T16:00:39;99393.66;;;-1.66;90.78
41515;BME280;27247;48.020;16.720;2024-01-07T16:04:50;99403.09;;;-1.64;91.67
41515;BME280;27247;48.020;16.720;2024-01-07T16:09:00;99408.66;;;-1.68;91.57
41515;BME280;27247;48.020;16.720;2024-01-07T16:13:10;99420.69;;;-1.66;91.35
41515;BME280;27247;48.020;16.720;2024-01-07T16:17:21;99426.78;;;-1.65;91.30
41515;BME280;27247;48.020;16.720;2024-01-07T16:21:31;99429.50;;;-1.67;91.21
41515;BME280;27247;48.020;16.720;2024-01-07T16:25:41;99415.16;;;-1.74;89.68
41515;BME280;27247;48.020;16.720;2024-01-07T16:29:52;99416.94;;;-1.74;89.01
41515;BME280;27247;48.020;16.720;2024-01-07T16:34:02;99434.34;;;-1.73;89.98
41515;BME280;27247;48.020;16.720;2024-01-07T16:38:13;99447.22;;;-1.70;90.91
41515;BME280;27247;48.020;16.720;2024-01-07T16:42:23;99447.53;;;-1.75;89.95
41515;BME280;27247;48.020;16.720;2024-01-07T16:46:33;99452.16;;;-1.78;90.23
41515;BME280;27247;48.020;16.720;2024-01-07T16:50:44;99449.53;;;-1.78;91.53
41515;BME280;27247;48.020;16.720;2024-01-07T16:54:54;99460.63;;;-1.75;91.36
41515;BME280;27247;48.020;16.720;2024-01-07T16:59:06;99456.75;;;-1.82;91.85
41515;BME280;27247;48.020;16.720;2024-01-07T17:03:16;99442.22;;;-1.86;91.66
41515;BME280;27247;48.020;16.720;2024-01-07T17:07:27;99459.69;;;-1.86;92.25
41515;BME280;27247;48.020;16.720;2024-01-07T17:11:40;99468.28;;;-1.84;93.18
41515;BME280;27247;48.020;16.720;2024-01-07T17:15:51;99472.91;;;-1.88;93.45
41515;BME280;27247;48.020;16.720;2024-01-07T17:20:01;99474.38;;;-1.84;93.77
41515;BME280;27247;48.020;16.720;2024-01-07T17:24:11;99474.03;;;-1.79;94.32
41515;BME280;27247;48.020;16.720;2024-01-07T17:28:22;99483.25;;;-1.74;95.10
41515;BME280;27247;48.020;16.720;2024-01-07T17:32:34;99499.47;;;-1.69;94.86
41515;BME280;27247;48.020;16.720;2024-01-07T17:36:44;99499.38;;;-1.67;94.02
41515;BME280;27247;48.020;16.720;2024-01-07T17:40:54;99495.91;;;-1.68;93.34
41515;BME280;27247;48.020;16.720;2024-01-07T17:45:06;99503.88;;;-1.69;93.30
41515;BME280;27247;48.020;16.720;2024-01-07T17:49:20;99509.44;;;-1.74;92.17
41515;BME280;27247;48.020;16.720;2024-01-07T17:53:31;99510.59;;;-1.78;92.53
41515;BME280;27247;48.020;16.720;2024-01-07T17:57:42;99519.91;;;-1.74;92.84
41515;BME280;27247;48.020;16.720;2024-01-07T18:01:52;99519.09;;;-1.74;92.08
41515;BME280;27247;48.020;16.720;2024-01-07T18:06:05;99520.97;;;-1.76;91.87
41515;BME280;27247;48.020;16.720;2024-01-07T18:10:15;99528.72;;;-1.75;91.26
41515;BME280;27247;48.020;16.720;2024-01-07T18:14:26;99526.94;;;-1.74;91.50
41515;BME280;27247;48.020;16.720;2024-01-07T18:18:37;99527.78;;;-1.74;91.21
41515;BME280;27247;48.020;16.720;2024-01-07T18:22:47;99523.38;;;-1.73;90.67
41515;BME280;27247;48.020;16.720;2024-01-07T18:26:58;99530.41;;;-1.74;90.77
41515;BME280;27247;48.020;16.720;2024-01-07T18:31:08;99539.31;;;-1.76;89.93
41515;BME280;27247;48.020;16.720;2024-01-07T18:35:18;99530.81;;;-1.80;88.74
41515;BME280;27247;48.020;16.720;2024-01-07T18:39:29;99553.66;;;-1.82;88.14
41515;BME280;27247;48.020;16.720;2024-01-07T18:43:40;99551.75;;;-1.80;89.38
41515;BME280;27247;48.020;16.720;2024-01-07T18:47:50;99551.66;;;-1.78;89.10
41515;BME280;27247;48.020;16.720;2024-01-07T18:52:00;99550.63;;;-1.76;89.26
41515;BME280;27247;48.020;16.720;2024-01-07T18:56:11;99561.09;;;-1.76;88.77
41515;BME280;27247;48.020;16.720;2024-01-07T19:00:21;99560.25;;;-1.76;88.67
41515;BME280;27247;48.020;16.720;2024-01-07T19:04:32;99568.22;;;-1.78;88.13
41515;BME280;27247;48.020;16.720;2024-01-07T19:08:42;99565.38;;;-1.75;86.76
41515;BME280;27247;48.020;16.720;2024-01-07T19:12:52;99573.44;;;-1.78;86.05
41515;BME280;27247;48.020;16.720;2024-01-07T19:17:03;99577.13;;;-1.80;85.91
41515;BME280;27247;48.020;16.720;2024-01-07T19:21:15;99585.91;;;-1.81;85.50
41515;BME280;27247;48.020;16.720;2024-01-07T19:25:26;99582.66;;;-1.85;85.18
41515;BME280;27247;48.020;16.720;2024-01-07T19:29:36;99580.78;;;-1.83;86.04
41515;BME280;27247;48.020;16.720;2024-01-07T19:33:47;99582.44;;;-1.82;86.01
41515;BME280;27247;48.020;16.720;2024-01-07T19:37:57;99582.56;;;-1.83;85.11
41515;BME280;27247;48.020;16.720;2024-01-07T19:42:10;99591.03;;;-1.92;84.04
41515;BME280;27247;48.020;16.720;2024-01-07T19:46:24;99587.28;;;-1.88;83.59
41515;BME280;27247;48.020;16.720;2024-01-07T19:50:35;99596.16;;;-1.91;83.31
41515;BME280;27247;48.020;16.720;2024-01-07T19:54:45;99609.25;;;-1.91;83.97
41515;BME280;27247;48.020;16.720;2024-01-07T19:58:56;99619.53;;;-1.88;83.59
41515;BME280;27247;48.020;16.720;2024-01-07T20:03:06;99627.28;;;-1.86;83.70
41515;BME280;27247;48.020;16.720;2024-01-07T20:07:17;99627.47;;;-1.89;83.82
41515;BME280;27247;48.020;16.720;2024-01-07T20:11:27;99639.44;;;-1.85;84.54
41515;BME280;27247;48.020;16.720;2024-01-07T20:15:37;99634.41;;;-1.88;83.97
41515;BME280;27247;48.020;16.720;2024-01-07T20:19:48;99642.34;;;-1.90;83.95
41515;BME280;27247;48.020;16.720;2024-01-07T20:23:58;99644.34;;;-1.94;84.52
41515;BME280;27247;48.020;16.720;2024-01-07T20:28:09;99649.16;;;-1.87;85.96
41515;BME280;27247;48.020;16.720;2024-01-07T20:32:20;99652.09;;;-1.92;84.83
41515;BME280;27247;48.020;16.720;2024-01-07T20:36:30;99655.75;;;-1.95;85.32
41515;BME280;27247;48.020;16.720;2024-01-07T20:40:40;99665.47;;;-1.97;85.32
41515;BME280;27247;48.020;16.720;2024-01-07T20:44:51;99666.81;;;-2.04;83.52
41515;BME280;27247;48.020;16.720;2024-01-07T20:49:01;99673.09;;;-2.06;83.89
41515;BME280;27247;48.020;16.720;2024-01-07T20:53:11;99677.50;;;-2.07;84.20
41515;BME280;27247;48.020;16.720;2024-01-07T20:57:24;99690.09;;;-2.13;84.13
41515;BME280;27247;48.020;16.720;2024-01-07T21:01:34;99679.41;;;-2.23;83.15
41515;BME280;27247;48.020;16.720;2024-01-07T21:05:45;99708.94;;;-2.21;83.14
41515;BME280;27247;48.020;16.720;2024-01-07T21:09:56;99702.00;;;-2.22;83.50
41515;BME280;27247;48.020;16.720;2024-01-07T21:14:06;99711.00;;;-2.26;84.23
41515;BME280;27247;48.020;16.720;2024-01-07T21:18:16;99706.06;;;-2.31;83.43
41515;BME280;27247;48.020;16.720;2024-01-07T21:22:26;99712.41;;;-2.35;82.80
41515;BME280;27247;48.020;16.720;2024-01-07T21:26:40;99716.72;;;-2.34;82.65
41515;BME280;27247;48.020;16.720;2024-01-07T21:30:50;99730.47;;;-2.44;81.72
41515;BME280;27247;48.020;16.720;2024-01-07T21:35:01;99719.06;;;-2.43;81.95
41515;BME280;27247;48.020;16.720;2024-01-07T21:39:11;99734.97;;;-2.46;82.70
41515;BME280;27247;48.020;16.720;2024-01-07T21:43:21;99729.72;;;-2.46;83.38
41515;BME280;27247;48.020;16.720;2024-01-07T21:47:33;99730.94;;;-2.52;82.65
41515;BME280;27247;48.020;16.720;2024-01-07T21:51:44;99725.91;;;-2.55;83.32